createdAt,value
2023-07-19T00:00:35.848Z,8.26
2023-07-19T00:03:02.645Z,7.91
2023-07-19T00:05:29.226Z,8.29
2023-07-19T00:07:55.578Z,7.76
2023-07-19T00:10:21.934Z,8.22
2023-07-19T00:12:55.986Z,7.96
2023-07-19T00:15:23.212Z,8.06
2023-07-19T00:17:49.617Z,7.93
2023-07-19T00:20:16.269Z,7.72
2023-07-19T00:22:42.663Z,8.21
2023-07-19T00:25:09.178Z,7.85
2023-07-19T00:27:35.578Z,7.94
2023-07-19T00:30:01.967Z,7.94
2023-07-19T00:32:28.433Z,7.85
2023-07-19T00:34:54.831Z,8.13
2023-07-19T00:37:21.167Z,8.13
2023-07-19T00:39:47.508Z,8.58
2023-07-19T00:42:13.862Z,8.11
2023-07-19T00:44:40.297Z,7.67
2023-07-19T00:47:06.654Z,7.83
2023-07-19T00:49:33.023Z,8.04
2023-07-19T00:51:59.411Z,8.01
2023-07-19T00:54:25.861Z,8.04
2023-07-19T00:56:52.376Z,8.20
2023-07-19T00:59:18.849Z,8.09
2023-07-19T01:01:45.288Z,8.59
2023-07-19T01:04:11.682Z,7.82
2023-07-19T01:06:38.064Z,7.89
2023-07-19T01:09:04.394Z,8.20
2023-07-19T01:11:30.752Z,8.40
2023-07-19T01:13:57.170Z,8.30
2023-07-19T01:16:23.579Z,8.46
2023-07-19T01:18:49.952Z,8.39
2023-07-19T01:21:23.401Z,7.83
2023-07-19T01:23:51.407Z,8.44
2023-07-19T01:26:17.729Z,8.25
2023-07-19T01:28:44.181Z,8.03
2023-07-19T01:31:10.595Z,8.06
2023-07-19T01:33:37.071Z,7.91
2023-07-19T01:36:03.752Z,8.37
2023-07-19T01:38:30.103Z,8.12
2023-07-19T01:40:56.656Z,8.15
2023-07-19T01:43:23.088Z,8.42
2023-07-19T01:45:49.522Z,8.55
2023-07-19T01:48:15.991Z,8.20
2023-07-19T01:50:42.391Z,7.95
2023-07-19T01:53:08.779Z,8.07
2023-07-19T01:55:35.236Z,8.25
2023-07-19T01:58:01.626Z,8.28
2023-07-19T02:00:28.019Z,8.23
2023-07-19T02:02:54.420Z,7.87
2023-07-19T02:05:20.831Z,8.40
2023-07-19T02:07:47.291Z,8.15
2023-07-19T02:10:13.682Z,8.04
2023-07-19T02:12:40.053Z,8.11
2023-07-19T02:15:06.650Z,8.21
2023-07-19T02:17:33.130Z,8.20
2023-07-19T02:19:59.627Z,7.86
2023-07-19T02:22:25.990Z,8.00
2023-07-19T02:24:52.314Z,8.10
2023-07-19T02:27:18.656Z,7.81
2023-07-19T02:29:44.971Z,8.14
2023-07-19T02:32:11.315Z,8.55
2023-07-19T02:34:37.638Z,8.72
2023-07-19T02:37:04.002Z,8.36
2023-07-19T02:39:30.373Z,8.32
2023-07-19T02:41:56.699Z,8.11
2023-07-19T02:44:23.068Z,8.54
2023-07-19T02:46:49.438Z,8.12
2023-07-19T02:49:15.923Z,8.14
2023-07-19T02:51:42.300Z,8.13
2023-07-19T02:54:08.676Z,8.46
2023-07-19T02:56:35.060Z,8.35
2023-07-19T02:59:01.458Z,8.39
2023-07-19T03:01:27.887Z,8.63
2023-07-19T03:03:54.305Z,8.35
2023-07-19T03:06:20.967Z,8.46
2023-07-19T03:08:47.350Z,8.23
2023-07-19T03:11:13.748Z,7.81
2023-07-19T03:13:40.081Z,8.38
2023-07-19T03:16:06.611Z,8.25
2023-07-19T03:18:33.248Z,8.21
2023-07-19T03:20:59.606Z,8.52
2023-07-19T03:23:25.946Z,8.37
2023-07-19T03:25:52.373Z,7.89
2023-07-19T03:28:18.711Z,7.65
2023-07-19T03:30:45.267Z,8.02
2023-07-19T03:33:11.708Z,8.01
2023-07-19T03:35:38.099Z,8.00
2023-07-19T03:38:04.501Z,7.88
2023-07-19T03:40:30.885Z,7.82
2023-07-19T03:42:57.222Z,7.38
2023-07-19T03:45:23.643Z,7.86
2023-07-19T03:47:49.991Z,7.77
2023-07-19T03:50:16.371Z,7.35
2023-07-19T03:52:42.701Z,7.45
2023-07-19T03:55:09.024Z,7.45
2023-07-19T03:57:35.335Z,7.30
2023-07-19T04:00:01.709Z,7.56
2023-07-19T04:02:28.117Z,7.25
2023-07-19T04:04:54.462Z,7.58
2023-07-19T04:07:20.835Z,7.29
2023-07-19T04:09:47.163Z,7.61
2023-07-19T04:12:13.527Z,7.12
2023-07-19T04:14:39.881Z,7.30
2023-07-19T04:17:06.249Z,7.32
2023-07-19T04:19:33.691Z,7.22
2023-07-19T04:22:00.076Z,7.30
2023-07-19T04:24:26.447Z,7.11
2023-07-19T04:26:52.827Z,7.09
2023-07-19T04:29:19.162Z,6.92
2023-07-19T04:31:45.530Z,6.97
2023-07-19T04:34:11.857Z,7.02
2023-07-19T04:36:38.441Z,7.37
2023-07-19T04:39:05.086Z,7.63
2023-07-19T04:41:31.541Z,6.91
2023-07-19T04:43:57.931Z,6.82
2023-07-19T04:46:24.306Z,6.99
2023-07-19T04:48:50.914Z,6.97
2023-07-19T04:51:17.340Z,6.89
2023-07-19T04:53:46.309Z,7.15
2023-07-19T04:56:12.910Z,7.00
2023-07-19T04:58:41.309Z,6.92
2023-07-19T05:01:07.970Z,7.11
2023-07-19T05:03:36.711Z,6.50
2023-07-19T05:06:03.260Z,6.92
2023-07-19T05:08:29.832Z,6.70
2023-07-19T05:10:58.113Z,6.46
2023-07-19T05:13:24.925Z,6.94
2023-07-19T05:15:51.254Z,6.46
2023-07-19T05:18:17.622Z,6.46
2023-07-19T05:20:44.027Z,6.50
2023-07-19T05:23:10.616Z,6.60
2023-07-19T05:25:36.984Z,6.32
2023-07-19T05:28:03.368Z,6.19
2023-07-19T05:30:29.697Z,6.09
2023-07-19T05:32:56.087Z,5.78
2023-07-19T05:35:22.468Z,6.16
2023-07-19T05:37:48.843Z,6.11
2023-07-19T05:40:15.244Z,6.22
2023-07-19T05:42:41.618Z,7.49
2023-07-19T05:45:07.977Z,5.92
2023-07-19T05:47:34.406Z,5.77
2023-07-19T05:50:00.848Z,7.68
2023-07-19T05:52:27.244Z,9.86
2023-07-19T05:54:53.623Z,7.14
2023-07-19T05:57:19.946Z,6.42
2023-07-19T05:59:46.315Z,6.77
2023-07-19T06:02:12.945Z,6.16
2023-07-19T06:04:39.433Z,6.41
2023-07-19T06:07:05.878Z,6.29
2023-07-19T06:09:32.222Z,6.20
2023-07-19T06:11:58.535Z,6.04
2023-07-19T06:14:24.855Z,5.90
2023-07-19T06:16:51.178Z,5.90
2023-07-19T06:19:17.548Z,6.06
2023-07-19T06:21:43.934Z,5.58
2023-07-19T06:24:10.289Z,5.81
2023-07-19T06:26:36.721Z,6.06
2023-07-19T06:29:03.101Z,5.75
2023-07-19T06:31:29.497Z,6.14
2023-07-19T06:33:55.940Z,6.15
2023-07-19T06:36:22.488Z,6.29
2023-07-19T06:38:48.880Z,6.08
2023-07-19T06:41:15.321Z,6.29
2023-07-19T06:43:41.718Z,6.01
2023-07-19T06:46:10.227Z,6.08
2023-07-19T06:48:37.591Z,6.77
2023-07-19T06:51:03.947Z,6.46
2023-07-19T06:53:30.272Z,6.65
2023-07-19T06:55:56.682Z,7.14
2023-07-19T06:58:23.011Z,6.73
2023-07-19T07:00:49.396Z,6.73
2023-07-19T07:03:15.868Z,7.02
2023-07-19T07:05:42.275Z,6.50
2023-07-19T07:08:08.653Z,6.66
2023-07-19T07:10:34.978Z,6.67
2023-07-19T07:13:01.317Z,6.82
2023-07-19T07:15:27.634Z,6.81
2023-07-19T07:17:54.067Z,6.83
2023-07-19T07:20:20.421Z,6.61
2023-07-19T07:22:46.774Z,6.95
2023-07-19T07:25:13.119Z,6.46
2023-07-19T07:27:39.499Z,6.66
2023-07-19T07:30:05.898Z,6.76
2023-07-19T07:32:32.296Z,6.53
2023-07-19T07:34:58.687Z,6.33
2023-07-19T07:37:25.091Z,6.13
2023-07-19T07:39:51.434Z,6.20
2023-07-19T07:42:17.819Z,6.38
2023-07-19T07:44:47.187Z,6.24
2023-07-19T07:47:14.628Z,6.10
2023-07-19T07:49:40.952Z,6.30
2023-07-19T07:52:07.265Z,5.98
2023-07-19T07:54:33.603Z,6.70
2023-07-19T07:56:59.993Z,6.54
2023-07-19T07:59:26.520Z,6.60
2023-07-19T08:01:52.893Z,6.63
2023-07-19T08:04:19.264Z,6.58
2023-07-19T08:06:45.625Z,6.73
2023-07-19T08:09:12.008Z,7.25
2023-07-19T08:11:38.353Z,6.64
2023-07-19T08:14:04.765Z,6.70
2023-07-19T08:16:31.225Z,6.27
2023-07-19T08:18:57.632Z,6.26
2023-07-19T08:21:35.417Z,6.66
2023-07-19T08:24:02.810Z,6.55
2023-07-19T08:26:29.192Z,6.72
2023-07-19T08:28:55.600Z,21.54
2023-07-19T08:31:22.255Z,23.54
2023-07-19T08:33:49.045Z,7.18
2023-07-19T08:36:15.570Z,6.96
2023-07-19T08:38:41.897Z,6.85
2023-07-19T08:41:08.269Z,6.52
2023-07-19T08:43:34.898Z,6.45
2023-07-19T08:46:01.328Z,6.37
2023-07-19T08:48:27.698Z,6.63
2023-07-19T08:50:54.027Z,6.77
2023-07-19T08:53:20.391Z,6.59
2023-07-19T08:55:46.712Z,6.90
2023-07-19T08:58:13.021Z,6.60
2023-07-19T09:00:39.351Z,6.74
2023-07-19T09:03:05.775Z,6.57
2023-07-19T09:05:32.185Z,6.59
2023-07-19T09:07:58.630Z,6.95
2023-07-19T09:10:24.970Z,6.40
2023-07-19T09:12:51.350Z,7.18
2023-07-19T09:15:17.837Z,7.75
2023-07-19T09:17:44.477Z,6.69
2023-07-19T09:20:10.957Z,6.88
2023-07-19T09:22:37.315Z,6.71
2023-07-19T09:25:03.908Z,6.35
2023-07-19T09:27:30.279Z,6.96
2023-07-19T09:29:56.644Z,6.91
2023-07-19T09:32:23.092Z,7.04
2023-07-19T09:34:49.657Z,6.79
2023-07-19T09:37:16.496Z,6.60
2023-07-19T09:39:42.886Z,6.41
2023-07-19T09:42:09.694Z,6.52
2023-07-19T09:44:36.123Z,6.57
2023-07-19T09:47:11.249Z,6.66
2023-07-19T09:49:45.091Z,6.78
2023-07-19T09:52:11.413Z,12.17
2023-07-19T09:54:37.769Z,52.72
2023-07-19T09:57:04.375Z,64.19
2023-07-19T09:59:30.702Z,6.89
2023-07-19T10:01:57.409Z,6.93
2023-07-19T10:04:23.901Z,6.98
2023-07-19T10:06:50.291Z,7.04
2023-07-19T10:09:16.900Z,7.05
2023-07-19T10:11:43.257Z,7.43
2023-07-19T10:14:20.376Z,7.30
2023-07-19T10:16:56.044Z,6.89
2023-07-19T10:19:22.448Z,7.08
2023-07-19T10:21:48.784Z,7.16
2023-07-19T10:24:15.389Z,11.45
2023-07-19T10:26:42.033Z,7.13
2023-07-19T10:29:10.518Z,7.57
2023-07-19T10:31:36.921Z,7.59
2023-07-19T10:34:03.725Z,7.57
2023-07-19T10:36:30.245Z,7.21
2023-07-19T10:38:56.612Z,7.14
2023-07-19T10:41:23.026Z,6.54
2023-07-19T10:43:53.606Z,6.67
2023-07-19T10:46:21.745Z,6.59
2023-07-19T10:48:48.536Z,6.26
2023-07-19T10:51:14.895Z,6.31
2023-07-19T10:53:41.283Z,6.43
2023-07-19T10:56:07.636Z,6.11
2023-07-19T10:58:33.977Z,6.47
2023-07-19T11:01:00.432Z,6.52
2023-07-19T11:03:26.871Z,6.25
2023-07-19T11:05:53.309Z,6.34
2023-07-19T11:08:19.755Z,6.33
2023-07-19T11:10:46.885Z,6.54
2023-07-19T11:13:13.274Z,6.71
2023-07-19T11:15:39.700Z,6.36
2023-07-19T11:18:06.142Z,6.33
2023-07-19T11:20:32.604Z,6.39
2023-07-19T11:22:58.990Z,6.44
2023-07-19T11:25:25.421Z,6.04
2023-07-19T11:27:51.768Z,6.34
2023-07-19T11:30:18.119Z,6.35
2023-07-19T11:32:44.547Z,6.34
2023-07-19T11:35:10.950Z,5.99
2023-07-19T11:37:37.334Z,6.12
2023-07-19T11:40:03.694Z,6.23
2023-07-19T11:42:30.056Z,6.20
2023-07-19T11:44:56.384Z,6.35
2023-07-19T11:47:22.768Z,6.05
2023-07-19T11:49:49.509Z,6.54
2023-07-19T11:52:16.150Z,6.52
2023-07-19T11:54:42.627Z,6.32
2023-07-19T11:57:08.945Z,6.20
2023-07-19T11:59:35.299Z,6.06
2023-07-19T12:02:01.790Z,5.81
2023-07-19T12:04:28.409Z,5.74
2023-07-19T12:06:54.849Z,5.78
2023-07-19T12:09:21.230Z,5.79
2023-07-19T12:11:47.601Z,5.98
2023-07-19T12:14:14.169Z,5.72
2023-07-19T12:16:52.504Z,6.10
2023-07-19T12:19:23.924Z,5.71
2023-07-19T12:21:50.745Z,5.58
2023-07-19T12:24:17.108Z,5.55
2023-07-19T12:50:48.472Z,4.99
2023-07-19T12:53:14.808Z,5.10
2023-07-19T12:55:41.121Z,5.27
2023-07-19T12:58:07.511Z,5.02
2023-07-19T13:00:34.164Z,5.64
2023-07-19T13:03:00.660Z,5.28
2023-07-19T13:05:27.464Z,5.18
2023-07-19T13:07:55.642Z,5.40
2023-07-19T13:10:22.217Z,4.96
2023-07-19T13:12:49.269Z,4.90
2023-07-19T13:15:18.764Z,5.04
2023-07-19T13:17:45.288Z,4.96
2023-07-19T13:20:11.824Z,5.06
2023-07-19T13:22:40.870Z,5.02
2023-07-19T13:25:09.933Z,4.75
2023-07-19T13:27:36.518Z,5.51
2023-07-19T13:30:03.340Z,4.88
2023-07-19T13:32:29.768Z,5.21
2023-07-19T13:34:56.641Z,4.90
2023-07-19T13:37:23.037Z,4.98
2023-07-19T13:39:49.502Z,5.05
2023-07-19T13:42:15.904Z,5.14
2023-07-19T13:44:42.527Z,5.05
2023-07-19T13:47:10.094Z,5.31
2023-07-19T13:49:38.487Z,5.45
2023-07-19T13:52:06.848Z,5.25
2023-07-19T13:54:34.471Z,4.91
2023-07-19T13:57:01.433Z,6.01
2023-07-19T13:59:32.074Z,4.62
2023-07-19T14:01:59.453Z,4.08
2023-07-19T14:04:26.422Z,4.05
2023-07-19T14:06:52.820Z,3.95
2023-07-19T14:09:20.287Z,4.09
2023-07-19T14:11:47.812Z,5.69
2023-07-19T14:14:17.799Z,4.13
2023-07-19T14:16:44.366Z,3.80
2023-07-19T14:19:12.661Z,3.67
2023-07-19T14:21:40.457Z,3.70
2023-07-19T14:24:07.020Z,3.88
2023-07-19T14:26:35.736Z,3.91
2023-07-19T14:29:02.065Z,3.54
2023-07-19T14:31:28.699Z,3.62
2023-07-19T14:33:55.124Z,3.47
2023-07-19T14:36:24.626Z,3.52
2023-07-19T14:38:55.622Z,3.34
2023-07-19T14:41:22.055Z,3.35
2023-07-19T14:43:48.641Z,3.69
2023-07-19T14:46:15.259Z,3.37
2023-07-19T14:48:41.875Z,3.58
2023-07-19T14:51:09.622Z,3.51
2023-07-19T14:53:38.250Z,3.28
2023-07-19T14:56:04.627Z,2.89
2023-07-19T14:58:30.953Z,2.98
2023-07-19T15:00:57.585Z,2.72
2023-07-19T15:03:27.413Z,6.36
2023-07-19T15:05:55.163Z,3.04
2023-07-19T15:08:21.509Z,2.87
2023-07-19T15:10:50.425Z,3.09
2023-07-19T15:13:20.822Z,3.18
2023-07-19T15:21:11.521Z,2.70
2023-07-19T15:23:37.927Z,2.99
2023-07-19T15:26:04.274Z,3.04
2023-07-19T15:28:30.687Z,3.11
2023-07-19T15:30:57.131Z,3.14
2023-07-19T15:33:23.514Z,2.86
2023-07-19T15:35:49.923Z,2.79
2023-07-19T15:38:16.397Z,2.77
2023-07-19T15:40:42.732Z,2.76
2023-07-19T15:43:09.120Z,2.71
2023-07-19T15:45:35.544Z,2.75
2023-07-19T15:48:01.991Z,2.39
2023-07-19T15:50:28.455Z,2.48
2023-07-19T15:52:54.788Z,2.55
2023-07-19T15:55:21.187Z,2.66
2023-07-19T15:57:47.509Z,2.56
2023-07-19T16:00:13.844Z,2.56
2023-07-19T16:02:40.305Z,2.56
2023-07-19T16:05:06.771Z,2.46
2023-07-19T16:07:35.407Z,2.49
2023-07-19T16:10:01.807Z,2.64
2023-07-19T16:12:28.141Z,2.52
2023-07-19T16:14:54.513Z,2.50
2023-07-19T16:17:20.911Z,2.82
2023-07-19T16:19:47.242Z,2.91
2023-07-19T16:22:13.757Z,3.08
2023-07-19T16:24:40.136Z,3.29
2023-07-19T16:27:06.610Z,2.95
2023-07-19T16:29:32.992Z,2.75
2023-07-19T16:31:59.376Z,2.40
2023-07-19T16:34:25.789Z,2.62
2023-07-19T16:36:52.192Z,2.75
2023-07-19T16:39:18.599Z,2.81
2023-07-19T16:41:45.032Z,3.09
2023-07-19T16:44:11.384Z,3.05
2023-07-19T16:46:38.489Z,2.95
2023-07-19T16:49:04.922Z,2.79
2023-07-19T16:51:31.283Z,3.11
2023-07-19T16:53:57.611Z,3.03
2023-07-19T16:56:24.077Z,2.98
2023-07-19T16:58:50.434Z,2.63
2023-07-19T17:01:16.837Z,3.19
2023-07-19T17:03:43.203Z,3.10
2023-07-19T17:06:09.589Z,3.03
2023-07-19T17:08:35.962Z,2.99
2023-07-19T17:11:02.393Z,3.01
2023-07-19T17:13:28.781Z,2.99
2023-07-19T17:15:55.109Z,3.14
2023-07-19T17:18:21.564Z,3.24
2023-07-19T17:20:48.239Z,3.10
2023-07-19T17:23:14.764Z,2.99
2023-07-19T17:25:41.193Z,3.35
2023-07-19T17:28:08.122Z,3.16
2023-07-19T17:30:34.463Z,3.31
2023-07-19T17:33:00.928Z,3.45
2023-07-19T17:35:27.308Z,3.52
2023-07-19T17:37:53.645Z,3.80
2023-07-19T17:40:20.274Z,4.15
2023-07-19T17:42:46.661Z,4.37
2023-07-19T17:45:13.076Z,4.22
2023-07-19T17:47:39.479Z,4.33
2023-07-19T17:50:05.865Z,4.38
2023-07-19T17:52:32.183Z,4.14
2023-07-19T17:54:58.486Z,4.68
2023-07-19T17:57:24.850Z,5.01
2023-07-19T17:59:51.227Z,4.70
2023-07-19T18:02:17.620Z,4.99
2023-07-19T18:04:43.961Z,5.16
2023-07-19T18:07:10.272Z,5.24
2023-07-19T18:09:36.642Z,5.28
2023-07-19T18:12:03.019Z,5.01
2023-07-19T18:14:29.402Z,5.09
2023-07-19T18:16:55.860Z,5.46
2023-07-19T18:19:22.248Z,5.28
2023-07-19T18:22:01.777Z,5.20
2023-07-19T18:24:32.432Z,5.39
2023-07-19T18:26:59.561Z,5.11
2023-07-19T18:29:25.886Z,5.37
2023-07-19T18:31:52.211Z,4.91
2023-07-19T18:34:18.593Z,5.37
2023-07-19T18:36:44.925Z,4.95
2023-07-19T18:39:11.292Z,5.14
2023-07-19T18:41:37.675Z,5.25
2023-07-19T18:44:04.030Z,5.03
2023-07-19T18:46:30.450Z,5.23
2023-07-19T18:48:56.814Z,4.95
2023-07-19T18:51:23.552Z,5.02
2023-07-19T18:53:50.183Z,5.13
2023-07-19T18:56:16.551Z,4.93
2023-07-19T18:58:42.884Z,4.92
2023-07-19T19:01:10.509Z,4.99
2023-07-19T19:03:37.064Z,5.03
2023-07-19T19:06:03.502Z,4.73
2023-07-19T19:08:29.878Z,4.74
2023-07-19T19:10:56.267Z,4.79
2023-07-19T19:13:22.611Z,4.47
2023-07-19T19:15:48.982Z,4.66
2023-07-19T19:18:15.376Z,4.88
2023-07-19T19:20:41.752Z,4.93
2023-07-19T19:23:08.197Z,4.80
2023-07-19T19:25:34.592Z,4.55
2023-07-19T19:28:01.071Z,4.93
2023-07-19T19:30:27.506Z,4.83
2023-07-19T19:32:53.907Z,4.58
2023-07-19T19:35:20.482Z,4.90
2023-07-19T19:37:46.930Z,4.60
2023-07-19T19:40:13.405Z,4.66
2023-07-19T20:19:53.230Z,5.01
2023-07-19T20:22:20.305Z,5.15
2023-07-19T20:24:54.501Z,5.02
2023-07-19T20:27:41.872Z,5.16
2023-07-19T20:30:10.632Z,5.20
2023-07-19T20:35:07.798Z,4.73
2023-07-19T20:37:36.305Z,4.79
2023-07-19T20:40:04.527Z,5.03
2023-07-19T20:53:08.965Z,4.81
2023-07-19T20:55:35.349Z,5.00
2023-07-19T20:58:01.755Z,4.97
2023-07-19T21:00:28.097Z,4.89
2023-07-19T21:02:54.594Z,5.19
2023-07-19T21:05:21.001Z,5.23
2023-07-19T21:07:47.424Z,4.96
2023-07-19T21:10:13.930Z,4.89
2023-07-19T21:12:40.336Z,5.33
2023-07-19T21:15:06.724Z,5.19
2023-07-19T21:17:33.201Z,4.89
2023-07-19T21:19:59.741Z,5.19
2023-07-19T21:22:26.084Z,5.22
2023-07-19T21:27:21.638Z,4.87
2023-07-19T21:29:47.960Z,5.31
2023-07-19T21:32:14.504Z,5.57
2023-07-19T21:34:40.876Z,5.13
2023-07-19T21:37:07.567Z,5.26
2023-07-19T21:39:34.255Z,5.22
2023-07-19T21:42:00.604Z,4.88
2023-07-19T21:44:27.009Z,4.96
2023-07-19T21:46:53.397Z,5.15
2023-07-19T21:49:20.228Z,5.47
2023-07-19T21:51:46.559Z,4.94
2023-07-19T21:54:12.925Z,5.06
2023-07-19T21:56:39.271Z,5.07
2023-07-19T21:59:05.880Z,5.07
2023-07-19T22:01:33.447Z,5.13
2023-07-19T22:03:59.942Z,5.37
2023-07-19T22:06:26.658Z,5.11
2023-07-19T22:08:53.104Z,4.92
2023-07-19T22:11:19.754Z,4.84
2023-07-19T22:16:27.495Z,4.91
2023-07-19T22:21:44.495Z,4.85
2023-07-19T22:24:10.946Z,4.90
2023-07-19T22:26:37.648Z,5.06
2023-07-19T22:29:11.213Z,5.10
2023-07-19T22:31:37.674Z,5.07
2023-07-19T22:34:04.139Z,4.71
2023-07-19T22:36:32.860Z,5.05
2023-07-19T22:38:59.798Z,4.97
2023-07-19T22:41:26.113Z,5.01
2023-07-19T22:43:52.570Z,4.78
2023-07-19T22:46:20.441Z,4.75
2023-07-19T22:48:47.167Z,4.79
2023-07-19T22:51:13.561Z,4.91
2023-07-19T22:53:41.030Z,5.13
2023-07-19T22:56:07.496Z,4.97
2023-07-19T22:58:33.889Z,4.75
2023-07-19T23:01:00.307Z,4.85
2023-07-19T23:03:26.730Z,4.74
2023-07-19T23:05:53.099Z,4.73
2023-07-19T23:08:19.429Z,4.90
2023-07-19T23:10:45.816Z,4.90
2023-07-19T23:13:12.199Z,4.77
2023-07-19T23:15:38.621Z,5.00
2023-07-19T23:18:05.039Z,5.00
2023-07-19T23:20:31.418Z,4.94
2023-07-19T23:22:57.832Z,4.99
2023-07-19T23:25:26.211Z,4.79
2023-07-19T23:27:52.573Z,5.12
2023-07-19T23:30:18.928Z,4.85
2023-07-19T23:32:45.339Z,4.71
2023-07-19T23:35:11.750Z,4.98
2023-07-19T23:37:38.103Z,4.95
2023-07-19T23:40:04.511Z,4.93
2023-07-19T23:42:30.918Z,5.10
2023-07-19T23:44:57.256Z,4.94
2023-07-19T23:47:23.759Z,4.90
2023-07-19T23:49:52.172Z,4.58
2023-07-19T23:52:18.599Z,4.44
2023-07-19T23:54:45.271Z,4.98
2023-07-19T23:57:11.764Z,4.82
2023-07-19T23:59:38.297Z,5.07
